createdAt,value
2022-11-27T00:00:38.540Z,68.00
2022-11-27T00:03:13.481Z,67.90
2022-11-27T00:05:58.671Z,67.40
2022-11-27T00:08:33.765Z,67.50
2022-11-27T00:11:18.339Z,67.90
2022-11-27T00:13:53.464Z,68.20
2022-11-27T00:16:29.041Z,68.20
2022-11-27T00:19:04.103Z,68.20
2022-11-27T00:21:38.993Z,68.20
2022-11-27T00:24:13.904Z,68.10
2022-11-27T00:26:49.742Z,68.50
2022-11-27T00:29:28.930Z,68.60
2022-11-27T00:32:06.443Z,68.20
2022-11-27T00:34:41.413Z,68.40
2022-11-27T00:37:16.386Z,69.00
2022-11-27T00:39:51.338Z,69.30
2022-11-27T00:42:26.216Z,70.00
2022-11-27T00:45:01.103Z,70.20
2022-11-27T00:47:35.929Z,70.20
2022-11-27T00:50:10.988Z,70.00
2022-11-27T00:52:45.880Z,70.20
2022-11-27T00:55:20.714Z,70.40
2022-11-27T00:57:55.547Z,70.10
2022-11-27T01:00:30.368Z,70.20
2022-11-27T01:03:05.271Z,70.30
2022-11-27T01:05:40.108Z,70.50
2022-11-27T01:08:14.929Z,70.40
2022-11-27T01:10:57.728Z,70.90
2022-11-27T01:13:36.476Z,71.00
2022-11-27T01:16:24.151Z,71.50
2022-11-27T01:19:01.501Z,71.50
2022-11-27T01:21:36.512Z,72.00
2022-11-27T01:24:14.826Z,72.10
2022-11-27T01:26:49.696Z,72.50
2022-11-27T01:29:24.556Z,72.70
2022-11-27T01:31:59.384Z,72.80
2022-11-27T01:34:34.514Z,72.70
2022-11-27T01:37:09.446Z,72.60
2022-11-27T01:39:44.295Z,72.90
2022-11-27T01:42:19.186Z,73.00
2022-11-27T01:44:55.927Z,73.20
2022-11-27T01:47:45.872Z,72.70
2022-11-27T01:50:35.565Z,72.70
2022-11-27T01:53:18.110Z,72.80
2022-11-27T01:55:59.291Z,72.50
2022-11-27T01:58:35.677Z,72.90
2022-11-27T02:01:10.885Z,72.60
2022-11-27T02:03:45.798Z,72.60
2022-11-27T02:06:20.633Z,72.20
2022-11-27T02:08:56.499Z,71.80
2022-11-27T02:12:17.051Z,71.90
2022-11-27T02:15:13.303Z,71.70
2022-11-27T02:18:09.524Z,71.60
2022-11-27T02:21:06.080Z,71.40
2022-11-27T02:24:00.498Z,71.50
2022-11-27T02:27:08.808Z,71.30
2022-11-27T02:29:48.252Z,71.20
2022-11-27T02:32:59.548Z,70.60
2022-11-27T02:35:52.460Z,70.80
2022-11-27T02:38:39.490Z,71.00
2022-11-27T02:41:47.168Z,70.60
2022-11-27T02:44:23.779Z,70.20
2022-11-27T02:46:59.314Z,69.50
2022-11-27T02:49:36.113Z,69.60
2022-11-27T02:52:13.412Z,69.40
2022-11-27T02:54:52.207Z,69.00
2022-11-27T02:57:28.155Z,69.30
2022-11-27T03:00:04.653Z,69.50
2022-11-27T03:02:46.151Z,69.30
2022-11-27T03:05:23.951Z,69.50
2022-11-27T03:08:09.610Z,69.70
2022-11-27T03:11:07.432Z,69.60
2022-11-27T03:14:06.331Z,69.50
2022-11-27T03:17:06.260Z,69.20
2022-11-27T03:20:15.519Z,68.90
2022-11-27T03:22:53.354Z,68.50
2022-11-27T03:25:28.912Z,68.10
2022-11-27T03:28:08.447Z,68.00
2022-11-27T03:30:43.326Z,68.00
2022-11-27T03:33:18.347Z,67.70
2022-11-27T03:35:53.431Z,68.30
2022-11-27T03:38:28.515Z,68.50
2022-11-27T03:41:19.697Z,68.40
2022-11-27T03:44:22.170Z,68.40
2022-11-27T03:47:18.149Z,68.20
2022-11-27T03:50:01.840Z,68.20
2022-11-27T03:53:09.514Z,67.50
2022-11-27T03:56:15.179Z,67.30
2022-11-27T03:59:24.144Z,67.00
2022-11-27T04:01:59.071Z,66.50
2022-11-27T04:04:33.939Z,66.50
2022-11-27T04:07:16.185Z,67.00
2022-11-27T04:09:51.087Z,67.10
2022-11-27T04:12:25.942Z,67.00
2022-11-27T04:15:00.972Z,67.10
2022-11-27T04:17:35.916Z,67.40
2022-11-27T04:20:14.361Z,67.30
2022-11-27T04:22:49.270Z,67.10
2022-11-27T04:25:24.168Z,66.70
2022-11-27T04:27:59.107Z,66.30
2022-11-27T04:30:34.181Z,65.80
2022-11-27T04:33:09.006Z,65.60
2022-11-27T04:35:44.195Z,65.60
2022-11-27T04:38:20.997Z,65.80
2022-11-27T04:40:55.848Z,66.10
2022-11-27T04:43:30.723Z,66.40
2022-11-27T04:46:05.707Z,66.40
2022-11-27T04:48:40.572Z,66.40
2022-11-27T04:51:15.453Z,66.70
2022-11-27T04:53:50.527Z,66.70
2022-11-27T04:56:25.461Z,67.80
2022-11-27T04:59:01.046Z,68.30
2022-11-27T05:01:35.943Z,68.40
2022-11-27T05:04:10.921Z,68.90
2022-11-27T05:06:45.986Z,68.60
2022-11-27T05:09:21.283Z,68.80
2022-11-27T05:11:56.179Z,68.90
2022-11-27T05:14:31.168Z,68.60
2022-11-27T05:17:06.204Z,68.30
2022-11-27T05:19:41.061Z,68.20
2022-11-27T05:22:15.981Z,68.00
2022-11-27T05:24:50.829Z,67.60
2022-11-27T05:27:25.721Z,67.30
2022-11-27T05:30:00.578Z,67.30
2022-11-27T05:32:35.437Z,67.10
2022-11-27T05:35:10.305Z,66.70
2022-11-27T05:37:45.165Z,66.40
2022-11-27T05:40:20.028Z,66.30
2022-11-27T05:42:54.839Z,66.00
2022-11-27T05:45:30.180Z,65.70
2022-11-27T05:48:05.287Z,65.40
2022-11-27T05:50:40.268Z,65.00
2022-11-27T05:53:15.188Z,64.90
2022-11-27T05:55:50.015Z,64.70
2022-11-27T05:58:24.839Z,64.50
2022-11-27T06:01:00.173Z,64.30
2022-11-27T06:03:35.700Z,64.10
2022-11-27T06:06:15.511Z,63.90
2022-11-27T06:08:50.391Z,63.80
2022-11-27T06:11:25.279Z,63.50
2022-11-27T06:14:00.165Z,63.40
2022-11-27T06:16:35.036Z,63.20
2022-11-27T06:19:10.008Z,63.70
2022-11-27T06:21:46.434Z,64.20
2022-11-27T06:24:21.284Z,64.50
2022-11-27T06:26:56.134Z,64.60
2022-11-27T06:29:31.155Z,65.10
2022-11-27T06:32:06.743Z,65.20
2022-11-27T06:34:41.850Z,65.50
2022-11-27T06:37:16.853Z,65.30
2022-11-27T06:39:51.811Z,65.00
2022-11-27T06:42:30.239Z,64.70
2022-11-27T06:45:05.969Z,64.40
2022-11-27T06:47:40.829Z,64.30
2022-11-27T06:50:15.716Z,64.60
2022-11-27T06:52:50.567Z,65.20
2022-11-27T06:55:25.383Z,65.60
2022-11-27T06:58:00.285Z,65.70
2022-11-27T07:00:35.164Z,65.90
2022-11-27T07:03:10.066Z,65.50
2022-11-27T07:05:45.020Z,66.00
2022-11-27T07:08:20.709Z,66.20
2022-11-27T07:11:06.130Z,66.30
2022-11-27T07:13:41.396Z,66.30
2022-11-27T07:16:17.594Z,67.00
2022-11-27T07:18:56.254Z,66.90
2022-11-27T07:21:31.357Z,67.00
2022-11-27T07:24:06.805Z,67.30
2022-11-27T07:26:41.808Z,67.80
2022-11-27T07:29:16.635Z,68.40
2022-11-27T07:31:51.707Z,68.20
2022-11-27T07:34:26.653Z,68.10
2022-11-27T07:37:01.616Z,68.40
2022-11-27T07:40:00.697Z,68.50
2022-11-27T07:42:38.005Z,68.40
2022-11-27T07:45:13.521Z,67.90
2022-11-27T07:47:48.347Z,67.50
2022-11-27T07:50:23.311Z,67.10
2022-11-27T07:52:58.956Z,67.10
2022-11-27T07:55:33.833Z,66.80
2022-11-27T07:58:09.191Z,66.50
2022-11-27T08:00:44.268Z,65.90
2022-11-27T08:03:19.115Z,65.20
2022-11-27T08:05:54.095Z,65.40
2022-11-27T08:08:28.955Z,65.70
2022-11-27T08:11:03.787Z,66.10
2022-11-27T08:13:38.618Z,66.10
2022-11-27T08:16:13.663Z,65.80
2022-11-27T08:18:48.507Z,66.00
2022-11-27T08:21:23.937Z,65.60
2022-11-27T08:23:58.828Z,65.40
2022-11-27T08:26:33.804Z,66.00
2022-11-27T08:29:12.379Z,66.00
2022-11-27T08:31:47.669Z,66.00
2022-11-27T08:34:22.564Z,65.50
2022-11-27T08:36:57.466Z,65.20
2022-11-27T08:39:32.306Z,65.20
2022-11-27T08:42:07.188Z,64.80
2022-11-27T08:44:42.531Z,64.70
2022-11-27T08:47:17.545Z,64.30
2022-11-27T08:49:52.914Z,63.10
2022-11-27T08:52:27.759Z,63.30
2022-11-27T08:55:02.652Z,63.50
2022-11-27T08:57:37.898Z,63.20
2022-11-27T09:00:13.531Z,62.00
2022-11-27T09:02:48.356Z,62.00
2022-11-27T09:05:24.162Z,61.50
2022-11-27T09:08:01.652Z,60.50
2022-11-27T09:10:37.327Z,59.80
2022-11-27T09:13:12.467Z,59.20
2022-11-27T09:15:47.352Z,58.20
2022-11-27T09:18:22.191Z,57.30
2022-11-27T09:21:03.628Z,56.80
2022-11-27T09:23:39.468Z,56.20
2022-11-27T09:26:17.000Z,55.50
2022-11-27T09:28:54.174Z,54.70
2022-11-27T09:31:29.069Z,53.70
2022-11-27T09:34:04.816Z,53.00
2022-11-27T09:36:39.692Z,52.60
2022-11-27T09:39:15.620Z,52.20
2022-11-27T09:41:55.452Z,50.70
2022-11-27T09:44:54.112Z,50.00
2022-11-27T09:47:41.892Z,49.10
2022-11-27T09:50:24.931Z,48.00
2022-11-27T09:53:15.785Z,47.20
2022-11-27T09:55:54.094Z,47.60
2022-11-27T09:58:59.902Z,47.70
2022-11-27T10:01:44.176Z,47.90
2022-11-27T10:04:22.602Z,48.20
2022-11-27T10:07:09.345Z,48.10
2022-11-27T10:10:47.966Z,47.60
2022-11-27T10:13:34.250Z,47.70
2022-11-27T10:16:30.225Z,48.00
2022-11-27T10:20:17.894Z,48.60
2022-11-27T10:23:37.741Z,48.70
2022-11-27T10:26:25.806Z,49.20
2022-11-27T10:29:12.726Z,49.10
2022-11-27T10:31:57.710Z,49.50
2022-11-27T10:34:44.152Z,49.60
2022-11-27T10:37:39.211Z,50.80
2022-11-27T10:40:14.136Z,51.40
2022-11-27T10:42:56.624Z,51.40
2022-11-27T10:45:56.672Z,50.40
2022-11-27T10:48:33.219Z,48.10
2022-11-27T10:51:18.188Z,46.00
2022-11-27T10:53:54.670Z,44.50
2022-11-27T10:56:56.617Z,42.70
2022-11-27T10:59:54.931Z,41.10
2022-11-27T11:02:38.455Z,39.10
2022-11-27T11:05:50.470Z,37.80
2022-11-27T11:08:21.582Z,36.60
2022-11-27T11:11:04.173Z,35.00
2022-11-27T11:13:41.843Z,34.10
2022-11-27T11:16:23.993Z,34.10
2022-11-27T11:19:01.437Z,32.80
2022-11-27T11:21:41.523Z,33.30
2022-11-27T11:24:28.214Z,33.10
2022-11-27T11:27:27.393Z,33.20
2022-11-27T11:30:05.936Z,32.80
2022-11-27T11:32:42.006Z,32.40
2022-11-27T11:35:34.717Z,32.00
2022-11-27T11:38:17.632Z,32.90
2022-11-27T11:41:04.270Z,32.30
2022-11-27T11:43:40.110Z,32.90
2022-11-27T11:46:28.396Z,33.70
2022-11-27T11:49:17.442Z,33.70
2022-11-27T11:52:38.184Z,33.30
2022-11-27T11:55:27.687Z,33.00
2022-11-27T11:58:19.788Z,34.40
2022-11-27T12:01:43.430Z,35.80
2022-11-27T12:04:32.280Z,35.90
2022-11-27T12:07:39.286Z,34.30
2022-11-27T12:10:36.700Z,33.80
2022-11-27T12:13:20.987Z,33.60
2022-11-27T12:16:17.625Z,33.80
2022-11-27T12:19:14.379Z,34.90
2022-11-27T12:22:00.117Z,33.80
2022-11-27T12:25:04.672Z,34.40
2022-11-27T12:28:22.650Z,34.80
2022-11-27T12:31:08.280Z,34.70
2022-11-27T12:34:14.568Z,35.50
2022-11-27T12:36:58.632Z,35.30
2022-11-27T12:40:01.538Z,35.40
2022-11-27T12:43:15.706Z,35.40
2022-11-27T12:46:47.869Z,34.10
2022-11-27T12:49:45.204Z,35.50
2022-11-27T12:52:32.757Z,35.20
2022-11-27T12:55:21.467Z,33.90
2022-11-27T12:58:00.651Z,34.90
2022-11-27T13:00:40.055Z,35.50
2022-11-27T13:03:36.795Z,34.50
2022-11-27T13:06:19.823Z,35.70
2022-11-27T13:09:12.990Z,35.00
2022-11-27T13:11:48.234Z,34.80
2022-11-27T13:14:26.459Z,34.00
2022-11-27T13:17:08.868Z,33.70
2022-11-27T13:19:50.224Z,33.60
2022-11-27T13:22:34.655Z,33.60
2022-11-27T13:25:14.798Z,34.80
2022-11-27T13:27:52.839Z,34.90
2022-11-27T13:30:33.151Z,34.50
2022-11-27T13:33:25.741Z,35.10
2022-11-27T13:36:03.721Z,34.20
2022-11-27T13:38:42.501Z,34.20
2022-11-27T13:41:23.048Z,33.20
2022-11-27T13:43:58.669Z,33.30
2022-11-27T13:46:45.604Z,32.80
2022-11-27T13:49:31.417Z,32.00
2022-11-27T13:52:19.720Z,33.90
2022-11-27T13:55:00.005Z,33.60
2022-11-27T13:57:35.201Z,33.50
2022-11-27T14:00:16.228Z,33.60
2022-11-27T14:02:52.127Z,34.10
2022-11-27T14:05:44.842Z,33.20
2022-11-27T14:08:30.731Z,33.50
2022-11-27T14:11:14.373Z,33.50
2022-11-27T14:13:51.994Z,33.60
2022-11-27T14:16:36.008Z,34.00
2022-11-27T14:19:41.856Z,34.30
2022-11-27T14:22:33.871Z,33.80
2022-11-27T14:25:32.058Z,33.30
2022-11-27T14:28:26.077Z,32.50
2022-11-27T14:31:02.802Z,32.70
2022-11-27T14:34:07.247Z,32.30
2022-11-27T14:36:39.290Z,32.30
2022-11-27T14:39:46.570Z,33.10
2022-11-27T14:42:29.269Z,33.20
2022-11-27T14:45:21.185Z,32.70
2022-11-27T14:47:56.089Z,33.00
2022-11-27T14:50:31.462Z,32.90
2022-11-27T14:53:06.516Z,32.90
2022-11-27T14:55:41.496Z,32.90
2022-11-27T14:58:20.995Z,33.00
2022-11-27T15:01:01.292Z,33.50
2022-11-27T15:03:37.046Z,34.20
2022-11-27T15:06:19.596Z,34.20
2022-11-27T15:09:23.743Z,34.30
2022-11-27T15:12:24.650Z,34.50
2022-11-27T15:15:28.771Z,33.90
2022-11-27T15:18:07.796Z,34.00
2022-11-27T15:20:46.877Z,33.60
2022-11-27T15:23:27.775Z,33.80
2022-11-27T15:26:02.773Z,33.80
2022-11-27T15:28:49.469Z,34.00
2022-11-27T15:31:37.326Z,34.50
2022-11-27T15:34:18.560Z,34.50
2022-11-27T15:37:06.287Z,34.60
2022-11-27T15:40:24.597Z,34.40
2022-11-27T15:42:59.558Z,34.10
2022-11-27T15:45:34.521Z,34.10
2022-11-27T15:48:16.809Z,33.80
2022-11-27T15:50:52.171Z,33.70
2022-11-27T15:53:27.042Z,33.60
2022-11-27T15:56:01.905Z,33.30
2022-11-27T15:58:36.779Z,33.20
2022-11-27T16:01:12.065Z,33.10
2022-11-27T16:03:47.156Z,33.00
2022-11-27T16:06:24.597Z,34.00
2022-11-27T16:09:01.389Z,34.10
2022-11-27T16:11:36.334Z,33.90
2022-11-27T16:14:11.648Z,34.00
2022-11-27T16:16:46.549Z,33.90
2022-11-27T16:19:21.440Z,33.90
2022-11-27T16:21:56.818Z,34.10
2022-11-27T16:24:31.704Z,34.10
2022-11-27T16:27:07.293Z,34.30
2022-11-27T16:29:42.692Z,34.20
2022-11-27T16:32:17.589Z,34.30
2022-11-27T16:34:52.506Z,34.30
2022-11-27T16:37:27.360Z,34.50
2022-11-27T16:40:02.533Z,34.80
2022-11-27T16:42:38.348Z,34.70
2022-11-27T16:45:13.242Z,34.90
2022-11-27T16:47:48.528Z,35.00
2022-11-27T16:50:26.647Z,34.70
2022-11-27T16:53:01.739Z,34.70
2022-11-27T16:55:36.591Z,34.80
2022-11-27T16:58:11.486Z,35.20
2022-11-27T17:00:46.493Z,35.40
2022-11-27T17:03:21.682Z,35.50
2022-11-27T17:05:56.649Z,35.40
2022-11-27T17:08:31.543Z,35.40
2022-11-27T17:11:24.853Z,35.80
2022-11-27T17:14:05.098Z,35.80
2022-11-27T17:16:42.589Z,36.00
2022-11-27T17:19:18.671Z,36.30
2022-11-27T17:21:53.568Z,36.40
2022-11-27T17:24:28.909Z,36.30
2022-11-27T17:27:04.622Z,36.40
2022-11-27T17:29:39.699Z,36.40
2022-11-27T17:32:14.728Z,36.50
2022-11-27T17:34:49.616Z,36.50
2022-11-27T17:37:24.573Z,36.40
2022-11-27T17:39:59.550Z,36.40
2022-11-27T17:42:34.417Z,36.30
2022-11-27T17:45:09.794Z,36.10
2022-11-27T17:47:44.874Z,36.10
2022-11-27T17:50:20.147Z,36.10
2022-11-27T17:52:55.058Z,36.00
2022-11-27T17:55:30.286Z,35.90
2022-11-27T17:58:05.511Z,36.00
2022-11-27T18:00:41.216Z,35.80
2022-11-27T18:03:16.209Z,35.70
2022-11-27T18:05:51.118Z,35.70
2022-11-27T18:08:26.077Z,35.80
2022-11-27T18:11:10.496Z,35.50
2022-11-27T18:13:45.896Z,35.40
2022-11-27T18:16:28.831Z,35.40
2022-11-27T18:19:10.561Z,35.40
2022-11-27T18:21:45.455Z,35.30
2022-11-27T18:24:23.443Z,35.30
2022-11-27T18:27:09.183Z,35.30
2022-11-27T18:29:45.138Z,35.20
2022-11-27T18:32:20.256Z,35.00
2022-11-27T18:34:55.340Z,34.90
2022-11-27T18:37:30.250Z,35.10
2022-11-27T18:40:07.498Z,35.00
2022-11-27T18:42:42.695Z,35.40
2022-11-27T18:45:32.275Z,35.00
2022-11-27T18:48:08.285Z,35.00
2022-11-27T18:50:43.589Z,35.00
2022-11-27T18:53:18.487Z,35.00
2022-11-27T18:55:53.345Z,34.80
2022-11-27T18:58:30.717Z,34.50
2022-11-27T19:01:14.831Z,34.50
2022-11-27T19:03:50.599Z,34.50
2022-11-27T19:06:25.582Z,34.70
2022-11-27T19:09:00.445Z,34.90
2022-11-27T19:11:35.961Z,34.90
2022-11-27T19:14:11.392Z,34.80
2022-11-27T19:16:47.042Z,34.70
2022-11-27T19:22:19.891Z,34.50
2022-11-27T19:24:54.833Z,34.60
2022-11-27T19:27:29.709Z,34.70
2022-11-27T19:30:05.654Z,34.70
2022-11-27T19:32:40.516Z,34.80
2022-11-27T19:35:15.414Z,34.80
2022-11-27T19:37:50.941Z,34.60
2022-11-27T19:40:31.571Z,34.60
2022-11-27T19:43:06.480Z,34.60
2022-11-27T19:45:41.426Z,34.70
2022-11-27T19:48:22.688Z,34.60
2022-11-27T19:51:02.002Z,34.80
2022-11-27T19:53:37.841Z,34.80
2022-11-27T19:56:12.893Z,34.80
2022-11-27T19:58:47.905Z,34.90
2022-11-27T20:01:23.112Z,34.80
2022-11-27T20:03:58.907Z,35.00
2022-11-27T20:06:35.551Z,35.10
2022-11-27T20:09:10.988Z,35.20
2022-11-27T20:11:47.372Z,35.40
2022-11-27T20:14:22.705Z,35.30
2022-11-27T20:16:57.931Z,35.30
2022-11-27T20:19:32.943Z,35.20
2022-11-27T20:22:07.840Z,35.10
2022-11-27T20:25:04.018Z,35.20
2022-11-27T20:27:37.900Z,35.30
2022-11-27T20:30:13.052Z,35.30
2022-11-27T20:32:47.926Z,35.40
2022-11-27T20:35:23.180Z,35.50
2022-11-27T20:37:58.042Z,35.40
2022-11-27T20:40:33.651Z,35.50
2022-11-27T20:43:08.911Z,35.50
2022-11-27T20:45:44.189Z,35.60
2022-11-27T20:48:20.257Z,35.70
2022-11-27T20:50:55.309Z,35.80
2022-11-27T20:53:30.238Z,35.90
2022-11-27T20:56:07.224Z,35.90
2022-11-27T20:58:45.179Z,36.00
2022-11-27T21:01:33.712Z,35.90
2022-11-27T21:04:21.008Z,35.90
2022-11-27T21:06:57.409Z,35.90
2022-11-27T21:09:32.604Z,35.90
2022-11-27T21:12:07.530Z,35.90
2022-11-27T21:14:45.294Z,35.80
2022-11-27T21:17:20.212Z,35.70
2022-11-27T21:19:56.358Z,35.80
2022-11-27T21:22:32.101Z,35.90
2022-11-27T21:25:07.899Z,35.90
2022-11-27T21:27:42.747Z,36.10
2022-11-27T21:30:19.036Z,36.10
2022-11-27T21:32:53.936Z,36.40
2022-11-27T21:35:32.232Z,36.50
2022-11-27T21:38:08.891Z,36.60
2022-11-27T21:40:43.863Z,36.70
2022-11-27T21:43:18.767Z,36.60
2022-11-27T21:45:54.049Z,36.40
2022-11-27T21:48:30.719Z,36.40
2022-11-27T21:51:07.587Z,36.40
2022-11-27T21:53:45.164Z,36.30
2022-11-27T21:56:22.820Z,36.30
2022-11-27T21:58:57.725Z,36.30
2022-11-27T22:01:33.148Z,36.30
2022-11-27T22:04:08.023Z,36.30
2022-11-27T22:06:47.515Z,36.40
2022-11-27T22:09:22.854Z,36.40
2022-11-27T22:11:57.693Z,36.40
2022-11-27T22:14:33.611Z,36.50
2022-11-27T22:17:08.572Z,36.50
2022-11-27T22:19:44.223Z,36.60
2022-11-27T22:22:19.315Z,36.70
2022-11-27T22:24:55.091Z,36.70
2022-11-27T22:27:30.012Z,36.70
2022-11-27T22:30:06.403Z,36.70
2022-11-27T22:32:41.254Z,36.70
2022-11-27T22:35:16.395Z,36.80
2022-11-27T22:37:55.329Z,36.80
2022-11-27T22:40:31.023Z,36.80
2022-11-27T22:43:05.941Z,36.90
2022-11-27T22:45:47.660Z,36.80
2022-11-27T22:48:22.774Z,36.80
2022-11-27T22:50:58.982Z,36.90
2022-11-27T22:53:34.089Z,36.90
2022-11-27T22:56:13.545Z,36.90
2022-11-27T22:58:49.193Z,36.90
2022-11-27T23:01:25.434Z,36.90
2022-11-27T23:04:01.409Z,37.00
2022-11-27T23:06:36.931Z,37.10
2022-11-27T23:09:11.817Z,37.10
2022-11-27T23:11:47.356Z,36.90
2022-11-27T23:14:22.513Z,37.10
2022-11-27T23:16:57.419Z,37.30
2022-11-27T23:19:32.440Z,37.30
2022-11-27T23:22:07.267Z,37.10
2022-11-27T23:24:42.455Z,37.10
2022-11-27T23:27:17.497Z,37.10
2022-11-27T23:29:52.417Z,37.20
2022-11-27T23:32:27.305Z,37.00
2022-11-27T23:35:02.205Z,37.10
2022-11-27T23:37:37.557Z,37.00
2022-11-27T23:40:12.815Z,37.20
2022-11-27T23:42:47.760Z,37.30
2022-11-27T23:45:22.590Z,37.20
2022-11-27T23:47:57.611Z,37.20
2022-11-27T23:50:32.512Z,37.10
2022-11-27T23:53:07.411Z,37.00
2022-11-27T23:55:42.257Z,37.00
2022-11-27T23:58:17.136Z,37.10
